Time;durP1;ratioP1;P1;durP2;ratioP2;P2;SDS_P1;SDS_P2;PMS_P1;PMS_P2;Temp;Humidity;BMP_temperature;BMP_pressure;BME280_temperature;BME280_humidity;BME280_pressure;Samples;Min_cycle;Max_cycle;Signal;HPM_P1;HPM_P2
2022/05/30 00:00:47;;;;;;;12.40;9.80;;;;;;;14.50;71.91;100589.97;4993949;28;20054;-52
2022/05/30 00:03:14;;;;;;;16.17;10.82;;;;;;;14.50;71.70;100589.13;4993684;28;20553;-52
2022/05/30 00:05:46;;;;;;;13.60;9.32;;;;;;;14.47;71.57;100587.47;4993577;28;20054;-54
2022/05/30 00:08:12;;;;;;;16.80;10.73;;;;;;;14.46;71.69;100582.28;4993798;28;20046;-54
2022/05/30 00:10:40;;;;;;;18.38;12.85;;;;;;;14.46;71.73;100575.31;4993202;28;20487;-52
2022/05/30 00:13:10;;;;;;;12.35;9.15;;;;;;;14.45;72.04;100578.81;4993650;28;20054;-54
2022/05/30 00:15:40;;;;;;;12.32;9.85;;;;;;;14.45;71.87;100575.34;4993746;28;20057;-52
2022/05/30 00:18:11;;;;;;;14.20;9.82;;;;;;;14.43;71.77;100578.00;4993729;28;20085;-51
2022/05/30 00:20:40;;;;;;;14.13;9.93;;;;;;;14.43;72.00;100578.00;4993155;28;20126;-51
2022/05/30 00:23:07;;;;;;;14.55;10.02;;;;;;;14.41;72.10;100582.38;4993219;28;20077;-51
2022/05/30 00:25:34;;;;;;;12.43;9.48;;;;;;;14.41;71.76;100582.38;4993436;28;20054;-52
2022/05/30 00:28:02;;;;;;;14.77;9.88;;;;;;;14.41;71.78;100587.59;4993234;28;20387;-53
2022/05/30 00:30:32;;;;;;;15.48;10.68;;;;;;;14.40;71.89;100587.63;4993450;28;20046;-54
2022/05/30 00:33:00;;;;;;;14.07;9.32;;;;;;;14.38;71.85;100590.28;5001996;28;20049;-54
2022/05/30 00:35:26;;;;;;;14.82;11.23;;;;;;;14.37;72.03;100583.34;5012846;28;20434;-54
2022/05/30 00:37:54;;;;;;;13.13;9.95;;;;;;;14.39;72.01;100581.56;5012985;28;20069;-50
2022/05/30 00:40:22;;;;;;;14.25;9.90;;;;;;;14.41;71.98;100587.59;5005057;28;20057;-54
2022/05/30 00:42:48;;;;;;;16.80;11.07;;;;;;;14.40;71.79;100583.25;4993329;28;20054;-51
2022/05/30 00:45:14;;;;;;;15.35;11.65;;;;;;;14.38;71.90;100585.06;4993433;28;20054;-50
2022/05/30 00:47:43;;;;;;;14.95;10.20;;;;;;;14.39;72.03;100576.34;4993293;28;20050;-53
2022/05/30 00:50:11;;;;;;;16.65;11.57;;;;;;;14.37;71.95;100583.34;4992965;28;20463;-51
2022/05/30 00:52:40;;;;;;;17.05;12.10;;;;;;;14.36;72.35;100581.63;4993112;28;20054;-55
2022/05/30 00:55:09;;;;;;;16.35;10.55;;;;;;;14.36;72.25;100584.25;4993311;28;20042;-51
2022/05/30 00:57:39;;;;;;;15.13;11.23;;;;;;;14.35;72.52;100585.13;4993103;28;20057;-54
2022/05/30 01:00:10;;;;;;;16.02;10.88;;;;;;;14.35;72.69;100576.47;4993257;28;20104;-54
2022/05/30 01:02:40;;;;;;;12.77;9.32;;;;;;;14.33;72.41;100578.25;4992593;28;20367;-54
2022/05/30 01:08:01;;;;;;;16.88;10.25;;;;;;;14.32;72.74;100572.19;4992652;28;20109;-54
2022/05/30 01:10:28;;;;;;;14.75;10.35;;;;;;;14.33;72.60;100581.72;4992973;28;20050;-53
2022/05/30 01:12:57;;;;;;;15.50;11.13;;;;;;;14.32;72.42;100584.38;4993010;28;20058;-54
2022/05/30 01:15:31;;;;;;;17.52;11.70;;;;;;;14.32;72.37;100571.31;4993049;28;20095;-51
2022/05/30 01:18:02;;;;;;;13.75;10.90;;;;;;;14.30;72.25;100576.59;4993238;28;20054;-53
2022/05/30 01:20:41;;;;;;;17.85;11.63;;;;;;;14.30;72.49;100576.59;4993078;28;20073;-52
2022/05/30 01:23:23;;;;;;;14.10;10.18;;;;;;;14.28;72.31;100573.16;4992725;28;20058;-51
2022/05/30 01:26:21;;;;;;;13.88;10.40;;;;;;;14.25;72.54;100575.84;4993053;28;20062;-51
2022/05/30 01:28:55;;;;;;;18.40;12.15;;;;;;;14.23;72.66;100569.81;4992915;28;20054;-50
2022/05/30 01:31:23;;;;;;;15.27;11.23;;;;;;;14.23;72.67;100567.22;4994262;28;20077;-53
2022/05/30 01:33:51;;;;;;;17.55;12.48;;;;;;;14.23;72.47;100569.81;5012388;28;20054;-52
2022/05/30 01:36:22;;;;;;;19.73;12.23;;;;;;;14.21;72.55;100572.47;5015894;28;20494;-52
2022/05/30 01:38:50;;;;;;;15.73;11.75;;;;;;;14.21;72.58;100576.81;5015944;28;20065;-54
2022/05/30 01:41:18;;;;;;;18.15;12.30;;;;;;;14.20;72.42;100570.75;5000254;28;20050;-52
2022/05/30 01:43:46;;;;;;;18.35;12.60;;;;;;;14.23;72.50;100574.19;4996285;28;20073;-50
2022/05/30 01:46:16;;;;;;;18.40;11.07;;;;;;;14.20;72.87;100569.91;4996272;28;20070;-52
2022/05/30 01:48:43;;;;;;;17.75;10.85;;;;;;;14.17;72.93;100573.44;4996414;28;20050;-53
2022/05/30 01:51:09;;;;;;;17.98;12.00;;;;;;;14.17;72.65;100565.63;4998406;28;20161;-54
2022/05/30 01:53:36;;;;;;;16.77;11.90;;;;;;;14.17;72.59;100568.22;5015455;28;20351;-53
2022/05/30 01:56:02;;;;;;;17.90;12.85;;;;;;;14.16;72.70;100565.66;5005326;28;20053;-53
2022/05/30 01:58:32;;;;;;;16.20;11.13;;;;;;;14.14;72.83;100562.25;4995905;28;20069;-54
2022/05/30 02:01:03;;;;;;;17.52;11.25;;;;;;;14.13;72.66;100565.75;4995986;28;20051;-53
2022/05/30 02:03:34;;;;;;;17.23;12.25;;;;;;;14.13;73.03;100563.13;4995297;28;20058;-53
2022/05/30 02:06:02;;;;;;;17.83;11.27;;;;;;;14.14;72.80;100554.41;4995847;28;20073;-53
2022/05/30 02:08:30;;;;;;;17.30;13.00;;;;;;;14.14;72.97;100557.03;4994796;28;20092;-53
2022/05/30 02:10:59;;;;;;;16.33;11.80;;;;;;;14.14;73.11;100557.03;4994684;28;20062;-51
2022/05/30 02:13:27;;;;;;;20.60;13.00;;;;;;;14.16;72.84;100563.06;4995819;28;20050;-51
2022/05/30 02:18:43;;;;;;;21.88;14.25;;;;;;;14.15;72.89;100559.59;4995527;28;20185;-50
2022/05/30 02:21:11;;;;;;;18.27;12.55;;;;;;;14.18;73.19;100561.25;4995689;28;20050;-51
2022/05/30 02:23:41;;;;;;;18.35;13.05;;;;;;;14.20;72.79;100555.13;4995234;28;20415;-52
2022/05/30 02:26:11;;;;;;;19.98;13.05;;;;;;;14.21;72.71;100553.38;4995270;28;20050;-50
2022/05/30 02:28:41;;;;;;;18.35;12.45;;;;;;;14.21;73.00;100558.59;4995467;28;20046;-54
2022/05/30 02:31:12;;;;;;;18.15;12.55;;;;;;;14.19;72.56;100555.16;4995141;28;20439;-51
2022/05/30 02:36:41;;;;;;;14.82;10.82;;;;;;;14.18;72.68;100553.44;5014442;28;20053;-52
2022/05/30 02:39:08;;;;;;;17.70;12.00;;;;;;;14.17;72.67;100549.13;5014914;28;20179;-50
2022/05/30 02:41:37;;;;;;;18.00;11.00;;;;;;;14.16;72.70;100547.41;4996985;28;20042;-53
2022/05/30 02:44:05;;;;;;;34.45;24.45;;;;;;;14.16;72.76;100555.25;4994907;28;20054;-53
2022/05/30 02:46:33;;;;;;;21.88;14.13;;;;;;;14.17;72.68;100551.75;4995531;28;20116;-51
2022/05/30 02:49:02;;;;;;;18.90;12.90;;;;;;;14.17;72.77;100554.34;4995615;28;20053;-50
2022/05/30 02:51:28;;;;;;;20.33;13.10;;;;;;;14.17;72.89;100554.34;4995388;28;20050;-53
2022/05/30 02:53:57;;;;;;;20.13;13.13;;;;;;;14.17;72.89;100551.75;4995548;28;20066;-54
2022/05/30 02:56:24;;;;;;;21.40;13.18;;;;;;;14.18;72.83;100550.84;4992277;28;20061;-50
2022/05/30 02:58:52;;;;;;;26.00;14.98;;;;;;;14.19;72.93;100550.81;4995279;28;20054;-51
2022/05/30 03:01:22;;;;;;;20.95;13.57;;;;;;;14.20;73.08;100549.91;4995172;28;20058;-50
2022/05/30 03:03:48;;;;;;;21.50;12.55;;;;;;;14.21;73.05;100545.53;4995133;28;20082;-50
2022/05/30 03:06:16;;;;;;;21.95;13.20;;;;;;;14.23;73.29;100546.34;4995107;28;20046;-53
2022/05/30 03:08:44;;;;;;;23.42;14.32;;;;;;;14.24;73.05;100555.91;4992440;28;22181;-53
2022/05/30 03:11:11;;;;;;;18.75;12.80;;;;;;;14.23;73.34;100554.19;4983394;28;20058;-51
2022/05/30 03:13:41;;;;;;;18.63;12.30;;;;;;;14.23;73.01;100550.72;4975669;28;20050;-52
2022/05/30 03:16:11;;;;;;;21.35;14.52;;;;;;;14.21;73.56;100551.63;4975744;28;20073;-52
2022/05/30 03:18:39;;;;;;;19.52;11.50;;;;;;;14.23;73.41;100550.72;4975400;28;20050;-53
2022/05/30 03:21:07;;;;;;;21.77;13.40;;;;;;;14.24;73.66;100555.91;4975532;28;20061;-54
2022/05/30 03:23:36;;;;;;;18.35;11.88;;;;;;;14.24;73.59;100550.69;4991290;28;20533;-53
2022/05/30 03:26:05;;;;;;;20.27;13.75;;;;;;;14.23;73.41;100551.56;4994737;28;20061;-50
2022/05/30 03:28:33;;;;;;;16.75;12.00;;;;;;;14.21;73.47;100550.75;4994926;28;20047;-54
2022/05/30 03:31:02;;;;;;;18.58;11.90;;;;;;;14.21;73.70;100548.16;4994501;28;20058;-53
2022/05/30 03:33:29;;;;;;;18.00;12.65;;;;;;;14.21;73.65;100542.94;5007033;28;20422;-54
2022/05/30 03:35:56;;;;;;;17.52;12.15;;;;;;;14.21;73.38;100551.63;5013800;28;20478;-51
2022/05/30 03:38:24;;;;;;;16.33;11.80;;;;;;;14.24;73.60;100550.69;5014217;28;20049;-52
2022/05/30 03:40:53;;;;;;;17.58;11.82;;;;;;;14.24;73.69;100536.78;5002137;28;20058;-50
2022/05/30 03:43:22;;;;;;;15.38;11.15;;;;;;;14.23;73.66;100538.53;4994473;28;20050;-53
2022/05/30 03:45:48;;;;;;;20.40;11.95;;;;;;;14.18;73.72;100535.19;4994407;28;20054;-53
2022/05/30 03:48:15;;;;;;;20.17;12.60;;;;;;;14.16;73.65;100537.00;4994216;28;20644;-52
2022/05/30 03:50:45;;;;;;;17.48;11.68;;;;;;;14.15;73.87;100530.06;4994174;28;20109;-51
2022/05/30 03:53:13;;;;;;;13.23;10.05;;;;;;;14.17;73.80;100523.06;4994343;28;20113;-52
2022/05/30 03:55:43;;;;;;;18.42;12.77;;;;;;;14.16;73.96;100523.97;4992794;28;20503;-52
2022/05/30 03:58:14;;;;;;;16.30;11.25;;;;;;;14.16;73.72;100537.00;4993826;28;20054;-50
2022/05/30 04:00:44;;;;;;;18.35;12.27;;;;;;;14.17;73.96;100533.50;4994134;28;20073;-53
2022/05/30 04:03:12;;;;;;;17.15;11.95;;;;;;;14.17;74.08;100538.69;5005946;28;20478;-50
2022/05/30 04:05:40;;;;;;;22.08;12.90;;;;;;;14.19;74.07;100536.91;5013231;28;20489;-50
2022/05/30 04:08:08;;;;;;;19.60;12.68;;;;;;;14.18;74.06;100524.78;5013550;28;20085;-50
2022/05/30 04:10:35;;;;;;;17.80;11.70;;;;;;;14.18;74.15;100535.19;5013217;28;20061;-50
2022/05/30 04:13:04;;;;;;;18.83;12.85;;;;;;;14.17;73.94;100533.50;5013466;28;20061;-54
2022/05/30 04:15:34;;;;;;;18.30;11.13;;;;;;;14.12;74.03;100537.97;5013699;28;20054;-53
2022/05/30 04:18:02;;;;;;;15.82;10.60;;;;;;;14.10;74.03;100538.00;5013729;28;20060;-54
2022/05/30 04:20:33;;;;;;;16.38;9.82;;;;;;;14.12;74.34;100545.78;5013481;28;20058;-50
2022/05/30 04:23:00;;;;;;;15.38;9.52;;;;;;;14.12;74.15;100556.22;5001917;28;20340;-51
2022/05/30 04:25:27;;;;;;;17.00;10.50;;;;;;;14.13;74.06;100564.00;4993560;28;20100;-51
2022/05/30 04:27:55;;;;;;;16.85;10.68;;;;;;;14.15;74.05;100562.19;4993864;28;20061;-51
2022/05/30 04:30:23;;;;;;;15.52;9.85;;;;;;;14.16;74.27;100558.69;4993346;28;20467;-52
2022/05/30 04:32:52;;;;;;;15.65;11.57;;;;;;;14.14;74.41;100565.72;5001332;28;20050;-51
2022/05/30 04:35:22;;;;;;;19.42;12.65;;;;;;;14.10;74.23;100558.84;5012858;28;20490;-51
2022/05/30 04:37:50;;;;;;;16.80;10.70;;;;;;;14.11;74.30;100555.34;5013457;28;20112;-54
2022/05/30 04:40:18;;;;;;;15.50;9.75;;;;;;;14.13;74.20;100563.13;5005707;28;20057;-54
2022/05/30 04:42:44;;;;;;;13.80;8.93;;;;;;;14.10;74.02;100558.00;4993693;28;20061;-54
2022/05/30 04:45:13;;;;;;;13.88;8.13;;;;;;;14.09;74.06;100561.50;4993517;28;20054;-53
2022/05/30 04:47:42;;;;;;;12.30;8.23;;;;;;;14.08;74.33;100555.44;4993222;28;20526;-51
2022/05/30 04:50:16;;;;;;;10.68;7.47;;;;;;;14.08;74.31;100554.59;4993571;28;20058;-51
2022/05/30 04:52:44;;;;;;;11.38;7.90;;;;;;;14.08;74.14;100549.38;4993526;28;20078;-54
2022/05/30 04:55:14;;;;;;;12.90;8.10;;;;;;;14.09;74.17;100551.09;4993496;28;20050;-53
2022/05/30 04:57:43;;;;;;;11.40;7.50;;;;;;;14.11;74.11;100546.69;4993172;28;20078;-52
2022/05/30 05:00:13;;;;;;;12.90;7.70;;;;;;;14.12;74.10;100540.56;4993571;28;20092;-54
2022/05/30 05:02:39;;;;;;;13.35;8.43;;;;;;;14.16;73.64;100537.00;4988529;28;20085;-53
2022/05/30 05:05:07;;;;;;;11.90;7.75;;;;;;;14.17;73.99;100536.09;4976545;28;20054;-54
2022/05/30 05:07:44;;;;;;;14.23;9.70;;;;;;;14.12;73.58;100538.81;4977282;28;20146;-54
2022/05/30 05:10:33;;;;;;;11.27;8.30;;;;;;;14.06;73.75;100541.59;4977653;28;20062;-51
2022/05/30 05:13:01;;;;;;;10.55;7.88;;;;;;;14.05;73.99;100545.09;4977735;28;20051;-53
2022/05/30 05:15:33;;;;;;;13.18;8.48;;;;;;;14.07;74.34;100542.44;4977780;28;20061;-51
2022/05/30 05:17:59;;;;;;;11.90;8.10;;;;;;;14.11;74.00;100541.47;4977797;28;20050;-53
2022/05/30 05:20:27;;;;;;;12.10;8.27;;;;;;;14.14;73.97;100544.00;4977725;28;20091;-53
2022/05/30 05:22:56;;;;;;;14.15;9.32;;;;;;;14.16;74.04;100548.28;4988627;28;20065;-53
2022/05/30 05:25:24;;;;;;;12.80;8.52;;;;;;;14.17;73.86;100543.91;4996775;28;20353;-51
2022/05/30 05:27:53;;;;;;;12.60;8.43;;;;;;;14.18;74.06;100538.66;4996931;28;20072;-54
2022/05/30 05:30:23;;;;;;;11.57;8.18;;;;;;;14.22;74.01;100542.03;4996906;28;20046;-53
2022/05/30 05:32:50;;;;;;;13.70;9.05;;;;;;;14.23;73.93;100546.34;5004579;28;20049;-55
2022/05/30 05:35:17;;;;;;;13.82;9.35;;;;;;;14.26;74.14;100538.47;5016463;28;20060;-51
2022/05/30 05:37:45;;;;;;;14.43;9.40;;;;;;;14.28;74.22;100535.81;5016281;28;20057;-52
2022/05/30 05:40:14;;;;;;;15.50;8.65;;;;;;;14.30;73.84;100539.22;5009122;28;20050;-54
2022/05/30 05:42:42;;;;;;;10.65;7.80;;;;;;;14.30;73.83;100545.28;4996700;28;20061;-51
2022/05/30 05:45:13;;;;;;;13.02;7.78;;;;;;;14.32;74.16;100547.88;4996403;28;20065;-52
2022/05/30 05:47:43;;;;;;;11.35;7.25;;;;;;;14.32;73.89;100540.03;4996486;28;20046;-51
2022/05/30 05:50:13;;;;;;;18.17;9.20;;;;;;;14.34;73.87;100543.47;4996690;28;20061;-51
2022/05/30 05:52:43;;;;;;;11.68;8.20;;;;;;;14.35;74.12;100542.56;4996239;28;20093;-54
2022/05/30 05:55:13;;;;;;;10.80;8.05;;;;;;;14.37;74.13;100546.84;4996387;28;20050;-54
2022/05/30 05:57:46;;;;;;;12.93;9.10;;;;;;;14.37;73.80;100549.44;4996350;28;20061;-55
2022/05/30 06:00:15;;;;;;;11.00;7.63;;;;;;;14.38;73.80;100540.72;4996225;28;20053;-54
2022/05/30 06:02:42;;;;;;;11.02;6.63;;;;;;;14.40;73.92;100551.13;4996442;28;20130;-55
2022/05/30 06:05:10;;;;;;;9.20;6.65;;;;;;;14.41;73.81;100547.63;4996422;28;20061;-52
2022/05/30 06:07:40;;;;;;;10.45;7.38;;;;;;;14.44;74.12;100543.19;4994355;28;20057;-51
2022/05/30 06:10:11;;;;;;;9.70;6.35;;;;;;;14.47;73.87;100548.34;4994145;28;20180;-54
2022/05/30 06:12:45;;;;;;;13.50;8.02;;;;;;;14.49;73.80;100551.75;4989491;28;20054;-54
2022/05/30 06:15:16;;;;;;;11.80;6.68;;;;;;;14.52;74.13;100554.28;5000477;28;20101;-51
2022/05/30 06:17:45;;;;;;;8.13;6.45;;;;;;;14.55;73.72;100555.09;4994408;28;20463;-50
2022/05/30 06:20:13;;;;;;;10.80;7.35;;;;;;;14.55;73.90;100555.09;4995438;28;20050;-50
2022/05/30 06:22:44;;;;;;;11.50;8.02;;;;;;;14.55;73.53;100557.69;4994383;28;20046;-51
2022/05/30 06:25:10;;;;;;;12.45;8.23;;;;;;;14.56;73.43;100556.81;4993569;28;20081;-49
2022/05/30 06:27:38;;;;;;;10.10;6.97;;;;;;;14.61;73.64;100563.63;4994385;28;20065;-50
2022/05/30 06:30:19;;;;;;;10.63;6.50;;;;;;;14.68;73.54;100559.09;4994161;28;20062;-50
2022/05/30 06:32:46;;;;;;;8.80;6.78;;;;;;;14.72;73.70;100563.34;4998924;28;20050;-52
2022/05/30 06:35:13;;;;;;;10.95;7.32;;;;;;;14.77;73.35;100566.66;4994592;28;20146;-53
2022/05/30 06:37:40;;;;;;;10.30;6.88;;;;;;;14.79;73.05;100567.47;4995168;28;20049;-50
2022/05/30 06:40:10;;;;;;;9.95;6.18;;;;;;;14.84;72.78;100568.19;4995046;28;20054;-50
2022/05/30 06:42:38;;;;;;;8.45;6.43;;;;;;;14.86;72.46;100571.63;4995092;28;20047;-52
2022/05/30 06:45:08;;;;;;;9.45;6.07;;;;;;;14.88;72.35;100567.22;4994788;28;20120;-52
2022/05/30 06:47:36;;;;;;;9.98;6.28;;;;;;;14.91;71.89;100559.28;4995551;28;20110;-51
2022/05/30 06:50:05;;;;;;;10.55;7.10;;;;;;;14.95;71.80;100557.44;4995235;28;20054;-51
2022/05/30 06:52:34;;;;;;;9.00;6.68;;;;;;;14.98;71.89;100560.81;4996652;28;20074;-50
2022/05/30 06:55:04;;;;;;;7.47;5.75;;;;;;;15.01;71.44;100545.06;4994379;28;20456;-50
2022/05/30 07:00:18;;;;;;;7.70;5.95;;;;;;;15.08;71.04;100536.16;4994795;28;20126;-55
2022/05/30 07:02:45;;;;;;;11.48;7.65;;;;;;;15.13;71.17;100539.50;4994633;28;20069;-49
2022/05/30 07:05:13;;;;;;;11.82;7.85;;;;;;;15.19;71.20;100530.63;4994764;28;20065;-52
2022/05/30 07:07:41;;;;;;;11.68;7.50;;;;;;;15.23;70.87;100534.00;4995325;28;20054;-52
2022/05/30 07:10:11;;;;;;;9.02;6.88;;;;;;;15.25;70.62;100537.41;4994106;28;20062;-50
2022/05/30 07:12:40;;;;;;;9.57;6.68;;;;;;;15.28;70.45;100526.88;4994948;28;20054;-50
2022/05/30 07:15:08;;;;;;;9.15;6.68;;;;;;;15.34;70.35;100534.53;4995583;28;20046;-52
2022/05/30 07:17:37;;;;;;;9.63;6.88;;;;;;;15.38;70.52;100529.16;4994292;28;20065;-50
2022/05/30 07:20:06;;;;;;;9.93;7.07;;;;;;;15.42;70.67;100529.91;4994461;28;20081;-50
2022/05/30 07:22:34;;;;;;;12.65;8.63;;;;;;;15.44;70.48;100538.56;4994276;28;20042;-51
2022/05/30 07:25:03;;;;;;;8.82;5.65;;;;;;;15.44;70.19;100525.50;4994415;28;20038;-51
2022/05/30 07:27:31;;;;;;;10.65;7.13;;;;;;;15.47;70.28;100528.88;4994425;28;20050;-53
2022/05/30 07:29:58;;;;;;;10.45;6.80;;;;;;;15.49;70.10;100526.19;4995519;28;20057;-55
2022/05/30 07:32:26;;;;;;;7.82;6.20;;;;;;;15.51;69.93;100524.41;5002386;28;20486;-53
2022/05/30 07:34:56;;;;;;;12.45;6.65;;;;;;;15.58;69.96;100525.06;4994434;28;20050;-52
2022/05/30 07:37:23;;;;;;;9.88;6.32;;;;;;;15.64;69.61;100520.53;4993981;28;20057;-52
2022/05/30 07:39:49;;;;;;;9.65;7.28;;;;;;;15.70;69.53;100517.72;4993877;28;20062;-52
2022/05/30 07:42:16;;;;;;;8.60;6.30;;;;;;;15.75;69.63;100523.66;4993832;28;20058;-50
2022/05/30 07:44:45;;;;;;;9.60;6.20;;;;;;;15.81;69.51;100529.56;4993898;28;20054;-51
2022/05/30 07:47:16;;;;;;;7.32;5.97;;;;;;;15.89;69.58;100527.56;4994089;28;20112;-51
2022/05/30 07:49:45;;;;;;;8.25;6.43;;;;;;;15.94;69.33;100528.25;4993562;28;20069;-50
2022/05/30 07:52:17;;;;;;;9.35;6.10;;;;;;;16.00;69.09;100525.44;4993971;28;20058;-49
2022/05/30 07:54:45;;;;;;;10.05;6.68;;;;;;;16.05;68.88;100526.13;4993978;28;20054;-51
2022/05/30 07:57:13;;;;;;;8.95;5.68;;;;;;;16.11;68.61;100525.91;4991664;28;20133;-51
2022/05/30 07:59:41;;;;;;;7.55;5.32;;;;;;;16.17;68.01;100524.88;4993837;28;20045;-53
2022/05/30 08:02:08;;;;;;;9.00;7.10;;;;;;;16.22;67.94;100529.03;4993484;28;20105;-52
2022/05/30 08:04:36;;;;;;;10.90;6.53;;;;;;;16.26;68.11;100530.66;4993692;28;20050;-51
2022/05/30 08:07:06;;;;;;;8.43;6.15;;;;;;;16.31;67.77;100533.94;4993432;28;20093;-51
2022/05/30 08:09:36;;;;;;;9.80;6.18;;;;;;;16.35;67.31;100535.56;4993512;28;20058;-50
2022/05/30 08:12:04;;;;;;;10.40;6.15;;;;;;;16.39;67.07;100531.91;4993908;28;20054;-52
2022/05/30 08:14:32;;;;;;;10.93;6.05;;;;;;;16.46;67.20;100536.94;4994035;28;20046;-51
2022/05/30 08:17:00;;;;;;;9.52;6.13;;;;;;;16.48;66.93;100535.09;4995157;28;20039;-49
2022/05/30 08:19:26;;;;;;;8.13;5.90;;;;;;;16.49;66.69;100536.81;4993315;28;20535;-49
2022/05/30 08:21:53;;;;;;;9.40;5.80;;;;;;;16.50;66.81;100538.53;4994328;28;20054;-50
2022/05/30 08:24:19;;;;;;;11.05;6.80;;;;;;;16.47;66.74;100539.50;4994076;28;20046;-50
2022/05/30 08:26:47;;;;;;;11.60;6.85;;;;;;;16.45;66.78;100540.47;4993647;28;20085;-50
2022/05/30 08:29:14;;;;;;;11.60;7.22;;;;;;;16.39;66.24;100546.75;4993514;28;20133;-50
2022/05/30 08:31:40;;;;;;;11.77;8.00;;;;;;;16.34;66.38;100539.06;4993824;28;20046;-50
2022/05/30 08:34:07;;;;;;;10.70;6.75;;;;;;;16.32;66.34;100540.03;4991912;28;20069;-53
2022/05/30 08:36:35;;;;;;;13.25;8.85;;;;;;;16.35;66.43;100540.78;4993168;28;20096;-50
2022/05/30 08:41:50;;;;;;;11.40;7.72;;;;;;;16.23;66.19;100530.75;4992702;28;20107;-52
2022/05/30 08:44:18;;;;;;;15.80;10.50;;;;;;;16.27;66.36;100532.34;4993484;28;20047;-51
2022/05/30 08:47:00;;;;;;;16.90;11.55;;;;;;;16.32;66.84;100534.81;4992223;28;20506;-51
2022/05/30 08:49:33;;;;;;;14.15;9.25;;;;;;;16.31;67.17;100539.19;4993379;28;20050;-53
2022/05/30 08:52:25;;;;;;;10.93;7.90;;;;;;;16.31;67.30;100536.56;4993258;28;20125;-50
2022/05/30 08:55:07;;;;;;;16.70;9.50;;;;;;;16.21;67.27;100540.41;4992906;28;20042;-51
2022/05/30 08:57:45;;;;;;;12.27;8.80;;;;;;;16.09;67.21;100539.06;4993133;28;20369;-51
2022/05/30 09:00:21;;;;;;;12.45;7.50;;;;;;;16.02;68.03;100534.94;4993258;28;20082;-51
2022/05/30 09:02:55;;;;;;;11.70;7.85;;;;;;;16.01;67.89;100535.84;4993128;28;20046;-52
2022/05/30 09:05:31;;;;;;;12.02;7.90;;;;;;;16.06;67.45;100527.84;4993069;28;20090;-50
2022/05/30 09:08:04;;;;;;;11.63;8.48;;;;;;;16.10;67.22;100530.28;4990264;28;20050;-50
2022/05/30 09:10:36;;;;;;;11.80;8.50;;;;;;;16.06;66.92;100522.63;4989579;28;20066;-51
2022/05/30 09:13:16;;;;;;;10.25;6.20;;;;;;;16.03;67.68;100522.72;4992992;28;20384;-50
2022/05/30 09:15:50;;;;;;;8.68;6.30;;;;;;;16.08;66.99;100515.56;4992825;28;20378;-50
2022/05/30 09:18:25;;;;;;;11.50;7.07;;;;;;;16.14;67.14;100515.38;4992996;28;20388;-55
2022/05/30 09:20:55;;;;;;;9.23;6.38;;;;;;;16.18;66.39;100519.59;4993151;28;20128;-54
2022/05/30 09:23:26;;;;;;;10.27;6.95;;;;;;;16.28;66.19;100517.50;4992480;28;20054;-51
2022/05/30 09:26:00;;;;;;;11.77;6.22;;;;;;;16.39;65.56;100521.44;4998582;28;20057;-53
2022/05/30 09:28:34;;;;;;;9.85;7.57;;;;;;;16.51;65.14;100524.53;4996680;28;20060;-51
2022/05/30 09:31:20;;;;;;;9.27;6.05;;;;;;;16.56;65.34;100522.59;4977420;28;20054;-51
2022/05/30 09:33:50;;;;;;;13.52;9.13;;;;;;;16.59;64.56;100517.25;4992210;28;20062;-53
2022/05/30 09:36:20;;;;;;;12.93;8.43;;;;;;;16.51;64.32;100519.31;4992863;28;20050;-53
2022/05/30 09:38:50;;;;;;;10.25;6.30;;;;;;;16.44;65.02;100509.97;4992964;28;20058;-51
2022/05/30 09:41:21;;;;;;;13.63;6.55;;;;;;;16.48;65.06;100519.41;4992602;28;20085;-51
2022/05/30 09:43:55;;;;;;;17.38;7.28;;;;;;;16.52;64.48;100515.78;4992718;28;20050;-50
2022/05/30 09:46:37;;;;;;;11.05;6.05;;;;;;;16.57;63.89;100508.59;4992201;28;20055;-53
2022/05/30 09:49:08;;;;;;;10.77;5.60;;;;;;;16.64;63.67;100510.09;4978022;28;20070;-52
2022/05/30 09:51:40;;;;;;;8.90;5.13;;;;;;;16.73;63.12;100509.81;4993209;28;20054;-55
2022/05/30 09:54:11;;;;;;;8.18;5.43;;;;;;;16.80;63.03;100506.06;4995117;28;20069;-54
2022/05/30 09:56:42;;;;;;;9.30;5.80;;;;;;;16.86;62.73;100507.59;4986196;28;20069;-55
2022/05/30 09:59:29;;;;;;;13.10;6.35;;;;;;;16.90;61.83;100512.66;4990449;28;20046;-52
2022/05/30 10:01:57;;;;;;;13.10;7.18;;;;;;;16.88;61.82;100498.75;4995452;28;20061;-55
2022/05/30 10:04:41;;;;;;;11.77;6.57;;;;;;;16.79;61.76;100493.88;4989621;28;20082;-50
2022/05/30 10:07:13;;;;;;;10.32;6.45;;;;;;;16.77;62.34;100490.47;4990039;28;20053;-54
2022/05/30 10:09:54;;;;;;;13.82;7.35;;;;;;;16.78;61.83;100497.41;5002898;28;20154;-55
2022/05/30 10:12:35;;;;;;;11.70;6.47;;;;;;;16.81;61.16;100492.06;4995046;28;20459;-52
2022/05/30 10:15:22;;;;;;;7.97;5.53;;;;;;;16.78;61.42;100496.56;4979319;28;20038;-55
2022/05/30 10:17:51;;;;;;;8.30;5.18;;;;;;;16.78;61.78;100497.41;4995519;28;20645;-55
2022/05/30 10:20:27;;;;;;;10.10;5.80;;;;;;;16.82;61.74;100495.53;5006478;28;20493;-51
2022/05/30 10:28:56;;;;;;;9.95;5.50;;;;;;;17.00;61.33;100498.28;4995121;28;20367;-52
2022/05/30 10:31:41;;;;;;;7.35;4.80;;;;;;;17.16;60.97;100492.44;4995487;28;20047;-52
2022/05/30 10:34:41;;;;;;;9.63;4.45;;;;;;;17.28;59.41;100492.00;5001185;28;20073;-54
2022/05/30 10:37:30;;;;;;;4.60;3.55;;;;;;;17.32;58.99;100488.34;4991661;28;20391;-53
2022/05/30 10:40:11;;;;;;;11.20;4.38;;;;;;;17.32;58.33;100496.19;4995673;28;20129;-53
2022/05/30 10:42:44;;;;;;;6.53;3.75;;;;;;;17.32;58.79;100489.19;4995157;28;20459;-52
2022/05/30 10:45:17;;;;;;;6.90;3.65;;;;;;;17.40;59.24;100496.72;4995193;28;20066;-53
2022/05/30 10:47:46;;;;;;;8.88;3.38;;;;;;;17.45;58.84;100499.16;4994972;28;20679;-52
2022/05/30 10:50:19;;;;;;;6.75;3.80;;;;;;;17.51;58.51;100486.66;4995124;28;20050;-52
2022/05/30 10:52:56;;;;;;;10.82;4.30;;;;;;;17.53;58.52;100492.69;4995265;28;20112;-50
2022/05/30 10:55:30;;;;;;;7.95;3.78;;;;;;;17.56;58.83;100486.47;5000669;28;20441;-50
2022/05/30 10:58:02;;;;;;;9.95;3.47;;;;;;;17.62;59.38;100481.84;5002798;28;20391;-53
2022/05/30 11:00:37;;;;;;;9.27;4.65;;;;;;;17.67;58.90;100472.03;4995122;28;20054;-51
2022/05/30 11:03:17;;;;;;;9.40;4.18;;;;;;;17.67;60.11;100473.81;4992166;28;20065;-52
2022/05/30 11:05:51;;;;;;;7.63;3.85;;;;;;;17.74;61.58;100479.69;4995024;28;20054;-55
2022/05/30 11:08:24;;;;;;;9.60;4.70;;;;;;;17.86;61.41;100481.78;4994987;28;20077;-52
2022/05/30 11:10:56;;;;;;;6.70;3.92;;;;;;;17.96;60.37;100480.47;4994174;28;20050;-54
2022/05/30 11:13:48;;;;;;;10.38;4.25;;;;;;;17.95;59.31;100494.50;4994671;28;20061;-52
2022/05/30 11:16:31;;;;;;;7.60;3.70;;;;;;;17.88;59.69;100488.66;4994985;28;20058;-54
2022/05/30 11:19:08;;;;;;;8.70;4.63;;;;;;;17.93;60.08;100480.59;4979458;28;20042;-52
2022/05/30 11:21:46;;;;;;;9.90;5.50;;;;;;;17.87;60.63;100486.09;4994147;28;20541;-55
2022/05/30 11:24:18;;;;;;;11.38;4.68;;;;;;;17.69;61.04;100487.72;4994294;28;20685;-56
2022/05/30 11:27:00;;;;;;;7.38;4.85;;;;;;;17.54;60.52;100486.53;4994668;28;20065;-52
2022/05/30 11:29:51;;;;;;;8.25;4.03;;;;;;;17.33;61.51;100479.56;4990122;28;20081;-51
2022/05/30 11:32:41;;;;;;;5.18;3.30;;;;;;;17.28;61.52;100492.00;4998105;28;20050;-53
2022/05/30 11:35:28;;;;;;;5.85;3.50;;;;;;;17.26;61.12;100485.97;4980018;28;20101;-52
2022/05/30 11:38:18;;;;;;;5.20;2.47;;;;;;;17.34;60.03;100478.63;4993282;28;20068;-51
2022/05/30 11:40:58;;;;;;;3.38;2.40;;;;;;;17.44;60.37;100476.50;4993637;28;20074;-55
2022/05/30 11:44:01;;;;;;;3.05;2.38;;;;;;;17.60;59.00;100470.56;4994435;28;20050;-53
2022/05/30 11:46:37;;;;;;;5.03;2.90;;;;;;;17.69;57.92;100477.25;4990084;28;20093;-56
2022/05/30 11:49:13;;;;;;;3.88;2.50;;;;;;;17.78;57.98;100476.00;4979764;28;20042;-49
2022/05/30 11:52:12;;;;;;;5.55;2.78;;;;;;;17.88;57.47;100472.06;4993829;28;20470;-50
2022/05/30 11:54:58;;;;;;;6.18;2.85;;;;;;;17.92;57.48;100468.41;4992091;28;20054;-50